createdAt,value
2023-04-21T00:01:08.625Z,65.50
2023-04-21T00:03:38.830Z,63.90
2023-04-21T00:06:07.734Z,63.20
2023-04-21T00:08:40.199Z,62.90
2023-04-21T00:11:09.781Z,61.70
2023-04-21T00:13:38.880Z,60.50
2023-04-21T00:16:07.938Z,60.90
2023-04-21T00:18:36.177Z,61.20
2023-04-21T00:21:04.562Z,60.70
2023-04-21T00:23:32.765Z,60.10
2023-04-21T00:26:02.686Z,59.90
2023-04-21T00:28:32.324Z,59.00
2023-04-21T00:31:00.582Z,59.20
2023-04-21T00:33:28.835Z,58.90
2023-04-21T00:35:59.119Z,58.30
2023-04-21T00:38:28.936Z,61.00
2023-04-21T00:40:57.188Z,60.90
2023-04-21T00:43:26.425Z,60.70
2023-04-21T00:45:57.325Z,60.00
2023-04-21T00:48:25.573Z,59.70
2023-04-21T00:50:53.899Z,59.80
2023-04-21T00:53:22.833Z,59.60
2023-04-21T00:55:52.396Z,59.50
2023-04-21T00:58:20.609Z,59.20
2023-04-21T01:00:49.516Z,59.00
2023-04-21T01:03:19.156Z,58.80
2023-04-21T01:05:47.405Z,58.90
2023-04-21T01:08:16.208Z,59.30
2023-04-21T01:10:44.565Z,59.70
2023-04-21T01:13:14.001Z,59.30
2023-04-21T01:15:42.409Z,59.10
2023-04-21T01:18:10.884Z,59.00
2023-04-21T01:20:40.519Z,59.10
2023-04-21T01:23:10.115Z,58.90
2023-04-21T01:25:38.329Z,59.10
2023-04-21T01:28:06.563Z,59.40
2023-04-21T01:30:34.884Z,59.10
2023-04-21T01:33:03.128Z,59.50
2023-04-21T01:35:31.637Z,59.20
2023-04-21T01:37:59.998Z,58.90
2023-04-21T01:40:29.656Z,59.20
2023-04-21T01:42:57.949Z,59.30
2023-04-21T01:45:26.436Z,60.00
2023-04-21T01:47:54.680Z,59.30
2023-04-21T01:50:22.948Z,59.80
2023-04-21T01:52:51.072Z,59.70
2023-04-21T01:55:19.570Z,59.40
2023-04-21T01:57:49.177Z,59.40
2023-04-21T02:00:18.007Z,59.70
2023-04-21T02:02:46.442Z,60.10
2023-04-21T02:05:15.280Z,60.10
2023-04-21T02:07:43.501Z,60.60
2023-04-21T02:10:12.142Z,60.70
2023-04-21T02:12:40.722Z,60.70
2023-04-21T02:15:13.306Z,61.00
2023-04-21T02:17:42.899Z,60.90
2023-04-21T02:20:12.571Z,60.70
2023-04-21T02:22:40.947Z,60.70
2023-04-21T02:25:09.765Z,60.80
2023-04-21T02:27:37.886Z,61.70
2023-04-21T02:30:07.415Z,62.20
2023-04-21T02:32:37.687Z,62.70
2023-04-21T02:35:07.110Z,63.20
2023-04-21T02:37:36.650Z,63.20
2023-04-21T02:40:05.452Z,62.70
2023-04-21T02:42:34.750Z,62.70
2023-04-21T02:45:02.937Z,63.40
2023-04-21T02:47:31.275Z,63.00
2023-04-21T02:50:00.751Z,62.20
2023-04-21T02:52:29.057Z,60.70
2023-04-21T02:54:57.303Z,60.30
2023-04-21T02:57:26.956Z,60.40
2023-04-21T02:59:55.029Z,61.60
2023-04-21T03:02:23.227Z,61.20
2023-04-21T03:04:52.158Z,61.90
2023-04-21T03:07:21.803Z,63.20
2023-04-21T03:09:50.651Z,62.00
2023-04-21T03:12:18.723Z,62.50
2023-04-21T03:14:46.822Z,62.10
2023-04-21T03:17:15.007Z,61.60
2023-04-21T03:19:43.162Z,60.70
2023-04-21T03:22:13.039Z,60.30
2023-04-21T03:24:42.599Z,60.80
2023-04-21T03:27:11.290Z,61.10
2023-04-21T03:29:39.477Z,61.80
2023-04-21T03:32:07.720Z,62.30
2023-04-21T03:34:35.913Z,63.10
2023-04-21T03:37:06.190Z,65.00
2023-04-21T03:39:34.312Z,65.70
2023-04-21T03:42:04.988Z,65.50
2023-04-21T03:44:33.818Z,65.80
2023-04-21T03:47:04.587Z,65.70
2023-04-21T03:49:34.996Z,65.70
2023-04-21T03:52:03.266Z,65.70
2023-04-21T03:54:31.411Z,65.30
2023-04-21T03:56:59.531Z,64.80
2023-04-21T03:59:29.030Z,65.00
2023-04-21T04:01:57.396Z,65.00
2023-04-21T04:04:26.028Z,65.70
2023-04-21T04:06:54.392Z,65.70
2023-04-21T04:09:22.440Z,65.20
2023-04-21T04:11:50.707Z,67.20
2023-04-21T04:14:18.895Z,65.40
2023-04-21T04:16:48.324Z,64.70
2023-04-21T04:19:16.680Z,66.10
2023-04-21T04:21:44.800Z,65.40
2023-04-21T04:24:14.113Z,65.40
2023-04-21T04:26:42.939Z,64.70
2023-04-21T04:29:11.820Z,64.20
2023-04-21T04:31:40.023Z,64.50
2023-04-21T04:34:09.675Z,64.80
2023-04-21T04:36:38.107Z,64.60
2023-04-21T04:39:08.289Z,64.60
2023-04-21T04:41:37.876Z,65.40
2023-04-21T04:44:06.309Z,66.20
2023-04-21T04:46:34.746Z,66.40
2023-04-21T04:49:03.396Z,65.80
2023-04-21T04:51:33.761Z,65.60
2023-04-21T04:54:02.080Z,65.30
2023-04-21T04:56:31.636Z,66.10
2023-04-21T04:58:59.736Z,65.00
2023-04-21T05:01:30.899Z,67.40
2023-04-21T05:03:59.616Z,69.80
2023-04-21T05:06:28.564Z,68.60
2023-04-21T05:08:58.093Z,67.50
2023-04-21T05:11:26.287Z,66.50
2023-04-21T05:13:54.660Z,65.90
2023-04-21T05:16:23.359Z,66.20
2023-04-21T05:18:54.082Z,65.10
2023-04-21T05:21:27.775Z,65.40
2023-04-21T05:23:58.451Z,64.20
2023-04-21T05:26:27.689Z,64.80
2023-04-21T05:28:57.025Z,65.00
2023-04-21T05:31:25.573Z,65.10
2023-04-21T05:33:54.451Z,64.80
2023-04-21T05:36:24.939Z,65.90
2023-04-21T05:38:55.400Z,66.60
2023-04-21T05:41:25.367Z,67.50
2023-04-21T05:43:53.548Z,68.30
2023-04-21T05:46:21.921Z,68.40
2023-04-21T05:48:50.274Z,68.30
2023-04-21T05:51:18.505Z,68.20
2023-04-21T05:53:47.568Z,67.40
2023-04-21T05:56:15.862Z,67.80
2023-04-21T05:58:45.469Z,69.20
2023-04-21T06:01:15.787Z,70.10
2023-04-21T06:03:44.357Z,69.80
2023-04-21T06:06:13.456Z,70.30
2023-04-21T06:08:41.654Z,72.30
2023-04-21T06:11:10.122Z,73.90
2023-04-21T06:13:39.168Z,72.50
2023-04-21T06:16:09.940Z,71.80
2023-04-21T06:18:38.376Z,72.20
2023-04-21T06:21:07.417Z,74.10
2023-04-21T06:23:35.642Z,74.20
2023-04-21T06:26:05.304Z,76.70
2023-04-21T06:28:34.323Z,78.00
2023-04-21T06:31:03.827Z,79.90
2023-04-21T06:33:34.444Z,83.10
2023-04-21T06:36:02.644Z,80.60
2023-04-21T06:38:30.815Z,80.60
2023-04-21T06:40:59.315Z,81.80
2023-04-21T06:43:27.451Z,82.30
2023-04-21T06:45:55.528Z,83.40
2023-04-21T06:48:24.549Z,85.70
2023-04-21T06:50:54.469Z,85.90
2023-04-21T06:53:22.694Z,87.50
2023-04-21T06:55:50.951Z,86.50
2023-04-21T06:58:21.107Z,85.90
2023-04-21T07:00:49.690Z,85.30
2023-04-21T07:03:17.968Z,86.80
2023-04-21T07:05:47.305Z,87.00
2023-04-21T07:08:17.117Z,87.90
2023-04-21T07:10:45.669Z,86.70
2023-04-21T07:13:13.903Z,86.30
2023-04-21T07:15:42.814Z,87.10
2023-04-21T07:18:11.320Z,87.10
2023-04-21T07:20:39.655Z,87.00
2023-04-21T07:23:07.844Z,87.80
2023-04-21T07:25:37.499Z,86.30
2023-04-21T07:28:05.982Z,87.00
2023-04-21T07:30:34.137Z,86.80
2023-04-21T07:33:02.725Z,85.90
2023-04-21T07:35:31.031Z,85.70
2023-04-21T07:37:59.190Z,84.70
2023-04-21T07:40:27.584Z,85.00
2023-04-21T07:42:57.304Z,84.70
2023-04-21T07:45:26.188Z,84.90
2023-04-21T07:47:54.474Z,84.30
2023-04-21T07:50:22.718Z,81.70
2023-04-21T07:52:50.931Z,81.70
2023-04-21T07:55:19.042Z,81.20
2023-04-21T07:57:47.219Z,80.70
2023-04-21T08:00:17.780Z,79.00
2023-04-21T08:02:46.436Z,78.30
2023-04-21T08:05:15.059Z,80.20
2023-04-21T08:07:43.419Z,77.50
2023-04-21T08:10:12.158Z,75.60
2023-04-21T08:12:40.304Z,73.60
2023-04-21T08:15:09.226Z,74.30
2023-04-21T08:17:38.954Z,75.30
2023-04-21T08:20:08.755Z,70.90
2023-04-21T08:22:37.445Z,73.70
2023-04-21T08:25:06.355Z,75.90
2023-04-21T08:27:34.520Z,74.10
2023-04-21T08:30:02.635Z,70.90
2023-04-21T08:32:30.855Z,73.30
2023-04-21T08:35:00.412Z,72.10
2023-04-21T08:37:29.205Z,71.10
2023-04-21T08:39:57.605Z,70.20
2023-04-21T08:42:25.702Z,72.00
2023-04-21T08:44:54.395Z,70.60
2023-04-21T08:47:25.297Z,73.20
2023-04-21T08:49:54.312Z,72.20
2023-04-21T08:52:23.841Z,69.80
2023-04-21T08:54:53.249Z,69.50
2023-04-21T08:57:21.759Z,65.80
2023-04-21T08:59:50.187Z,67.20
2023-04-21T09:02:19.897Z,67.80
2023-04-21T09:04:50.503Z,66.30
2023-04-21T09:07:34.124Z,69.30
2023-04-21T09:10:03.272Z,64.30
2023-04-21T09:12:31.841Z,66.20
2023-04-21T09:15:00.977Z,70.20
2023-04-21T09:17:32.744Z,66.40
2023-04-21T09:20:14.652Z,66.20
2023-04-21T09:22:44.293Z,62.10
2023-04-21T09:25:17.524Z,61.50
2023-04-21T09:27:46.567Z,62.10
2023-04-21T09:30:19.412Z,61.60
2023-04-21T09:32:47.684Z,63.20
2023-04-21T09:35:15.835Z,64.20
2023-04-21T09:37:46.041Z,65.40
2023-04-21T09:40:15.929Z,61.40
2023-04-21T09:42:45.062Z,63.50
2023-04-21T09:47:50.416Z,61.50
2023-04-21T09:50:39.343Z,57.70
2023-04-21T09:53:15.957Z,58.00
2023-04-21T09:55:47.318Z,58.50
2023-04-21T09:58:17.197Z,58.30
2023-04-21T10:00:45.488Z,63.00
2023-04-21T10:03:15.610Z,58.80
2023-04-21T10:05:44.728Z,56.20
2023-04-21T10:08:14.783Z,55.00
2023-04-21T10:10:43.331Z,58.60
2023-04-21T10:13:18.575Z,60.40
2023-04-21T10:15:46.871Z,58.00
2023-04-21T10:18:17.417Z,59.30
2023-04-21T10:20:56.457Z,58.80
2023-04-21T10:23:38.777Z,60.00
2023-04-21T10:26:13.256Z,58.40
2023-04-21T10:28:55.630Z,58.40
2023-04-21T10:31:27.237Z,59.00
2023-04-21T10:34:21.276Z,57.80
2023-04-21T10:37:13.424Z,59.50
2023-04-21T10:39:48.280Z,58.30
2023-04-21T10:42:22.953Z,59.70
2023-04-21T10:45:02.021Z,58.80
2023-04-21T10:47:33.592Z,59.50
2023-04-21T10:50:13.216Z,61.40
2023-04-21T10:52:44.678Z,61.30
2023-04-21T10:55:16.045Z,58.10
2023-04-21T10:57:46.579Z,58.30
2023-04-21T11:00:20.254Z,60.70
2023-04-21T11:02:56.773Z,58.20
2023-04-21T11:05:38.592Z,57.20
2023-04-21T11:08:12.918Z,59.50
2023-04-21T11:10:47.311Z,59.90
2023-04-21T11:13:15.625Z,58.10
2023-04-21T11:15:44.019Z,54.80
2023-04-21T11:18:12.240Z,56.10
2023-04-21T11:20:46.167Z,56.70
2023-04-21T11:23:18.990Z,56.40
2023-04-21T11:25:50.305Z,57.40
2023-04-21T11:28:23.219Z,55.40
2023-04-21T11:30:51.610Z,57.20
2023-04-21T11:33:19.862Z,57.90
2023-04-21T11:35:48.267Z,56.00
2023-04-21T11:38:18.638Z,55.20
2023-04-21T11:40:49.038Z,58.60
2023-04-21T11:43:17.218Z,54.40
2023-04-21T11:45:49.359Z,53.90
2023-04-21T11:48:17.963Z,53.20
2023-04-21T11:50:49.160Z,54.40
2023-04-21T11:53:17.571Z,53.00
2023-04-21T11:55:48.590Z,52.90
2023-04-21T11:58:18.098Z,55.40
2023-04-21T12:00:47.283Z,54.40
2023-04-21T12:03:16.208Z,53.20
2023-04-21T12:05:44.847Z,51.80
2023-04-21T12:08:16.019Z,48.90
2023-04-21T12:10:47.302Z,49.30
2023-04-21T12:13:23.463Z,50.40
2023-04-21T12:15:51.774Z,50.80
2023-04-21T12:18:19.977Z,48.70
2023-04-21T12:20:52.011Z,50.60
2023-04-21T12:23:20.849Z,50.90
2023-04-21T12:25:49.248Z,52.10
2023-04-21T12:28:19.197Z,48.80
2023-04-21T12:30:47.526Z,48.60
2023-04-21T12:33:15.817Z,50.00
2023-04-21T12:35:44.341Z,48.30
2023-04-21T12:38:12.581Z,45.40
2023-04-21T12:40:41.203Z,45.50
2023-04-21T12:43:09.360Z,46.80
2023-04-21T12:45:39.328Z,46.10
2023-04-21T12:48:07.581Z,47.30
2023-04-21T12:50:35.814Z,50.40
2023-04-21T12:53:03.985Z,47.60
2023-04-21T12:55:32.224Z,49.10
2023-04-21T12:58:00.666Z,45.80
2023-04-21T13:00:28.841Z,46.70
2023-04-21T13:02:58.526Z,47.20
2023-04-21T13:05:26.793Z,45.40
2023-04-21T13:07:55.826Z,46.30
2023-04-21T13:10:25.259Z,45.10
2023-04-21T13:12:53.784Z,45.30
2023-04-21T13:15:22.212Z,46.40
2023-04-21T13:17:50.530Z,47.90
2023-04-21T13:20:20.562Z,48.20
2023-04-21T13:22:48.833Z,43.60
2023-04-21T13:25:17.160Z,45.10
2023-04-21T13:27:46.795Z,44.10
2023-04-21T13:30:16.289Z,42.30
2023-04-21T13:32:45.094Z,42.70
2023-04-21T13:35:13.369Z,42.50
2023-04-21T13:37:43.006Z,43.20
2023-04-21T13:40:12.381Z,43.90
2023-04-21T13:42:40.981Z,44.00
2023-04-21T13:45:10.191Z,44.20
2023-04-21T13:47:38.530Z,43.10
2023-04-21T13:50:07.813Z,45.20
2023-04-21T13:52:36.713Z,48.00
2023-04-21T13:55:06.989Z,47.00
2023-04-21T13:57:35.239Z,46.90
2023-04-21T14:00:05.202Z,47.10
2023-04-21T14:02:33.579Z,45.50
2023-04-21T14:05:02.448Z,46.20
2023-04-21T14:07:31.095Z,45.50
2023-04-21T14:09:59.216Z,45.20
2023-04-21T14:12:28.918Z,48.00
2023-04-21T14:14:57.108Z,53.80
2023-04-21T14:17:25.784Z,52.90
2023-04-21T14:19:55.370Z,56.50
2023-04-21T14:22:23.795Z,53.20
2023-04-21T14:24:52.279Z,50.90
2023-04-21T14:27:20.370Z,49.70
2023-04-21T14:29:49.947Z,49.20
2023-04-21T14:32:20.456Z,51.30
2023-04-21T14:34:53.331Z,51.80
2023-04-21T14:37:22.779Z,51.00
2023-04-21T14:39:51.154Z,51.00
2023-04-21T14:42:19.900Z,47.60
2023-04-21T14:44:49.540Z,46.80
2023-04-21T14:47:18.123Z,46.30
2023-04-21T14:49:47.317Z,47.80
2023-04-21T14:52:15.598Z,46.30
2023-04-21T14:54:44.151Z,44.60
2023-04-21T14:57:20.533Z,46.80
2023-04-21T14:59:52.055Z,44.80
2023-04-21T15:02:21.583Z,44.70
2023-04-21T15:04:50.698Z,44.90
2023-04-21T15:07:23.855Z,45.50
2023-04-21T15:09:52.461Z,46.90
2023-04-21T15:12:21.047Z,47.40
2023-04-21T15:14:50.789Z,47.70
2023-04-21T15:17:19.161Z,45.90
2023-04-21T15:19:47.351Z,46.70
2023-04-21T15:22:15.893Z,47.40
2023-04-21T15:24:44.477Z,47.60
2023-04-21T15:27:12.656Z,48.40
2023-04-21T15:29:40.860Z,49.80
2023-04-21T15:32:11.105Z,48.70
2023-04-21T15:34:39.345Z,47.90
2023-04-21T15:37:07.592Z,47.80
2023-04-21T15:39:35.898Z,47.70
2023-04-21T15:42:05.061Z,47.80
2023-04-21T15:44:34.529Z,48.10
2023-04-21T15:47:02.925Z,47.60
2023-04-21T15:49:32.825Z,47.00
2023-04-21T15:52:01.128Z,47.00
2023-04-21T15:54:29.415Z,46.10
2023-04-21T15:56:57.645Z,46.50
2023-04-21T15:59:26.385Z,46.00
2023-04-21T16:01:56.860Z,45.50
2023-04-21T16:04:25.418Z,45.10
2023-04-21T16:06:55.614Z,45.70
2023-04-21T16:09:23.968Z,46.30
2023-04-21T16:11:52.473Z,44.60
2023-04-21T16:14:20.763Z,45.30
2023-04-21T16:16:49.383Z,46.20
2023-04-21T16:19:17.997Z,46.10
2023-04-21T16:21:46.335Z,45.30
2023-04-21T16:24:16.231Z,45.30
2023-04-21T16:26:44.829Z,46.40
2023-04-21T16:29:13.087Z,45.40
2023-04-21T16:31:41.358Z,46.10
2023-04-21T16:34:09.633Z,46.60
2023-04-21T16:36:37.986Z,45.90
2023-04-21T16:39:06.686Z,45.60
2023-04-21T16:41:36.243Z,46.30
2023-04-21T16:44:04.490Z,47.90
2023-04-21T16:46:32.832Z,44.70
2023-04-21T16:49:01.191Z,45.20
2023-04-21T16:51:29.432Z,44.80
2023-04-21T16:53:57.734Z,43.90
2023-04-21T16:56:25.870Z,44.40
2023-04-21T16:58:55.830Z,44.60
2023-04-21T17:01:24.071Z,45.30
2023-04-21T17:03:52.325Z,44.80
2023-04-21T17:06:21.188Z,45.30
2023-04-21T17:08:49.860Z,45.30
2023-04-21T17:11:18.032Z,46.10
2023-04-21T17:13:46.586Z,47.50
2023-04-21T17:16:16.927Z,46.90
2023-04-21T17:18:45.100Z,47.20
2023-04-21T17:21:13.644Z,47.20
2023-04-21T17:23:41.916Z,48.40
2023-04-21T17:26:12.261Z,47.70
2023-04-21T17:28:41.484Z,48.00
2023-04-21T17:31:15.838Z,48.10
2023-04-21T17:33:46.584Z,48.60
2023-04-21T17:36:16.938Z,48.80
2023-04-21T17:38:45.473Z,48.80
2023-04-21T17:41:13.762Z,48.30
2023-04-21T17:43:42.191Z,47.80
2023-04-21T17:46:11.280Z,48.00
2023-04-21T17:48:39.516Z,48.70
2023-04-21T17:51:11.566Z,49.10
2023-04-21T17:53:39.907Z,48.10
2023-04-21T17:56:08.642Z,48.40
2023-04-21T17:58:36.962Z,48.60
2023-04-21T18:01:05.423Z,48.40
2023-04-21T18:03:35.855Z,48.10
2023-04-21T18:06:04.815Z,47.90
2023-04-21T18:08:34.526Z,48.30
2023-04-21T18:11:02.769Z,46.70
2023-04-21T18:13:30.933Z,45.80
2023-04-21T18:15:59.228Z,45.90
2023-04-21T18:18:27.728Z,46.30
2023-04-21T18:20:55.965Z,46.40
2023-04-21T18:23:24.052Z,46.80
2023-04-21T18:25:53.695Z,47.20
2023-04-21T18:28:21.986Z,47.40
2023-04-21T18:30:50.216Z,47.30
2023-04-21T18:33:19.492Z,47.20
2023-04-21T18:35:47.866Z,47.40
2023-04-21T18:38:16.259Z,46.90
2023-04-21T18:40:44.408Z,46.70
2023-04-21T18:43:14.085Z,46.70
2023-04-21T18:45:42.222Z,47.00
2023-04-21T18:48:10.772Z,46.20
2023-04-21T18:50:40.324Z,46.30
2023-04-21T18:53:09.679Z,46.40
2023-04-21T18:55:38.020Z,46.10
2023-04-21T18:58:06.980Z,45.90
2023-04-21T19:00:39.440Z,45.60
2023-04-21T19:03:08.275Z,45.40
2023-04-21T19:05:38.353Z,45.70
2023-04-21T19:08:06.642Z,45.30
2023-04-21T19:10:35.528Z,45.30
2023-04-21T19:13:03.709Z,45.10
2023-04-21T19:15:32.185Z,44.60
2023-04-21T19:18:02.089Z,44.10
2023-04-21T19:20:32.357Z,44.10
2023-04-21T19:23:00.582Z,43.50
2023-04-21T19:25:29.314Z,43.90
2023-04-21T19:27:57.506Z,44.70
2023-04-21T19:30:25.684Z,45.40
2023-04-21T19:32:53.931Z,46.00
2023-04-21T19:35:23.462Z,46.70
2023-04-21T19:37:52.179Z,46.90
2023-04-21T19:40:20.970Z,47.40
2023-04-21T19:42:49.265Z,47.90
2023-04-21T19:45:19.853Z,48.50
2023-04-21T19:47:48.115Z,48.60
2023-04-21T19:50:17.411Z,49.30
2023-04-21T19:52:47.559Z,49.50
2023-04-21T19:55:16.240Z,49.40
2023-04-21T19:57:44.499Z,49.90
2023-04-21T20:00:14.157Z,50.30
2023-04-21T20:02:42.790Z,50.20
2023-04-21T20:05:11.337Z,50.00
2023-04-21T20:07:39.807Z,50.30
2023-04-21T20:10:10.702Z,50.30
2023-04-21T20:12:38.962Z,50.90
2023-04-21T20:15:08.294Z,51.10
2023-04-21T20:17:36.931Z,51.60
2023-04-21T20:20:06.487Z,52.10
2023-04-21T20:22:34.720Z,52.00
2023-04-21T20:25:04.416Z,52.30
2023-04-21T20:27:34.359Z,53.50
2023-04-21T20:30:02.598Z,53.20
2023-04-21T20:32:30.807Z,53.60
2023-04-21T20:34:59.953Z,53.80
2023-04-21T20:37:28.526Z,54.00
2023-04-21T20:40:01.438Z,53.90
2023-04-21T20:42:29.720Z,54.10
2023-04-21T20:45:02.085Z,54.20
2023-04-21T20:47:30.621Z,53.60
2023-04-21T20:49:59.190Z,53.30
2023-04-21T20:52:27.536Z,53.00
2023-04-21T20:54:55.826Z,52.90
2023-04-21T20:57:27.053Z,53.10
2023-04-21T20:59:55.415Z,53.30
2023-04-21T21:02:25.320Z,53.40
2023-04-21T21:04:53.725Z,53.40
2023-04-21T21:07:22.339Z,53.70
2023-04-21T21:09:51.212Z,54.00
2023-04-21T21:12:19.407Z,53.90
2023-04-21T21:14:47.593Z,54.10
2023-04-21T21:17:16.628Z,54.80
2023-04-21T21:19:46.214Z,55.30
2023-04-21T21:22:15.037Z,55.10
2023-04-21T21:24:43.344Z,55.00
2023-04-21T21:27:11.822Z,55.60
2023-04-21T21:29:40.518Z,55.50
2023-04-21T21:32:09.101Z,55.80
2023-04-21T21:34:37.271Z,55.80
2023-04-21T21:37:07.012Z,56.00
2023-04-21T21:39:35.430Z,55.90
2023-04-21T21:42:03.858Z,56.60
2023-04-21T21:44:32.241Z,56.60
2023-04-21T21:47:01.366Z,56.50
2023-04-21T21:49:29.865Z,56.20
2023-04-21T21:51:58.136Z,56.10
2023-04-21T21:54:27.686Z,56.20
2023-04-21T21:56:56.333Z,55.90
2023-04-21T21:59:24.718Z,56.70
2023-04-21T22:01:53.028Z,57.20
2023-04-21T22:04:21.678Z,57.50
2023-04-21T22:06:50.746Z,56.90
2023-04-21T22:09:19.207Z,56.50
2023-04-21T22:11:50.021Z,56.70
2023-04-21T22:14:23.336Z,57.00
2023-04-21T22:16:53.103Z,58.10
2023-04-21T22:19:21.802Z,57.60
2023-04-21T22:21:50.167Z,58.10
2023-04-21T22:24:18.828Z,58.90
2023-04-21T22:26:48.813Z,57.90
2023-04-21T22:29:17.103Z,58.40
2023-04-21T22:31:45.324Z,58.30
2023-04-21T22:34:15.176Z,59.00
2023-04-21T22:36:43.561Z,59.60
2023-04-21T22:39:12.109Z,59.00
2023-04-21T22:41:40.526Z,59.10
2023-04-21T22:44:10.379Z,60.00
2023-04-21T22:46:38.923Z,59.70
2023-04-21T22:49:07.505Z,60.00
2023-04-21T22:51:36.376Z,60.50
2023-04-21T22:54:04.896Z,60.80
2023-04-21T22:56:34.451Z,59.30
2023-04-21T22:59:02.879Z,58.50
2023-04-21T23:01:33.109Z,59.00
2023-04-21T23:04:01.904Z,58.90
2023-04-21T23:06:31.979Z,57.90
2023-04-21T23:09:00.238Z,59.40
2023-04-21T23:11:28.569Z,59.70
2023-04-21T23:13:56.841Z,59.40
2023-04-21T23:16:25.154Z,59.50
2023-04-21T23:18:55.326Z,58.50
2023-04-21T23:21:23.784Z,58.50
2023-04-21T23:23:52.029Z,58.50
2023-04-21T23:26:20.362Z,58.30
2023-04-21T23:28:48.692Z,58.90
2023-04-21T23:31:17.048Z,60.10
2023-04-21T23:33:45.702Z,60.40
2023-04-21T23:36:15.539Z,61.70
2023-04-21T23:38:43.765Z,63.00
2023-04-21T23:41:12.419Z,62.40
2023-04-21T23:43:42.155Z,63.00
2023-04-21T23:46:10.606Z,64.20
2023-04-21T23:48:39.002Z,63.30
2023-04-21T23:51:07.595Z,62.50
2023-04-21T23:53:37.754Z,62.30
2023-04-21T23:56:06.387Z,61.50
2023-04-21T23:58:34.584Z,61.60
